createdAt,value
2019-04-10T00:00:34.963Z,1002.29
2019-04-10T00:01:15.161Z,1002.27
2019-04-10T00:01:55.130Z,1002.27
2019-04-10T00:02:35.134Z,1002.29
2019-04-10T00:03:25.432Z,1002.28
2019-04-10T00:03:56.741Z,1002.29
2019-04-10T00:04:36.942Z,1002.33
2019-04-10T00:05:16.754Z,1002.28
2019-04-10T00:05:58.174Z,1002.32
2019-04-10T00:06:37.717Z,1002.29
2019-04-10T00:07:19.444Z,1002.3
2019-04-10T00:07:58.356Z,1002.31
2019-04-10T00:08:38.788Z,1002.28
2019-04-10T00:09:19.197Z,1002.27
2019-04-10T00:09:59.593Z,1002.27
2019-04-10T00:10:40.269Z,1002.32
2019-04-10T00:11:20.681Z,1002.31
2019-04-10T00:12:00.985Z,1002.29
2019-04-10T00:12:42.254Z,1002.27
2019-04-10T00:13:22.525Z,1002.29
2019-04-10T00:14:02.931Z,1002.28
2019-04-10T00:14:42.860Z,1002.28
2019-04-10T00:15:22.868Z,1002.26
2019-04-10T00:16:03.546Z,1002.27
2019-04-10T00:16:44.564Z,1002.3
2019-04-10T00:17:24.980Z,1002.29
2019-04-10T00:18:05.335Z,1002.28
2019-04-10T00:18:46.340Z,1002.31
2019-04-10T00:19:26.699Z,1002.28
2019-04-10T00:20:06.355Z,1002.3
2019-04-10T00:20:46.981Z,1002.29
2019-04-10T00:21:27.238Z,1002.31
2019-04-10T00:22:07.599Z,1002.31
2019-04-10T00:22:48.630Z,1002.27
2019-04-10T00:23:28.390Z,1002.28
2019-04-10T00:25:26.741Z,1002.25
2019-04-10T00:26:07.664Z,1002.27
2019-04-10T00:26:48.002Z,1002.26
2019-04-10T00:27:28.385Z,1002.29
2019-04-10T00:28:09.492Z,1002.28
2019-04-10T00:28:49.804Z,1002.24
2019-04-10T00:29:30.047Z,1002.27
2019-04-10T00:30:11.038Z,1002.29
2019-04-10T00:30:51.545Z,1002.31
2019-04-10T00:31:31.790Z,1002.24
2019-04-10T00:32:11.959Z,1002.29
2019-04-10T00:32:52.333Z,1002.29
2019-04-10T00:35:10.795Z,1002.31
2019-04-10T00:35:50.288Z,1002.31
2019-04-10T00:36:30.702Z,1002.32
2019-04-10T00:37:21.754Z,1002.32
2019-04-10T00:37:51.521Z,1002.32
2019-04-10T00:38:31.926Z,1002.32
2019-04-10T00:39:12.612Z,1002.3
2019-04-10T00:39:52.988Z,1002.27
2019-04-10T00:40:33.268Z,1002.32
2019-04-10T00:41:14.179Z,1002.32
2019-04-10T00:41:54.661Z,1002.32
2019-04-10T00:42:34.851Z,1002.33
2019-04-10T00:43:14.901Z,1002.29
2019-04-10T00:43:55.293Z,1002.28
2019-04-10T00:44:35.511Z,1002.37
2019-04-10T00:45:15.937Z,1002.31
2019-04-10T00:45:56.359Z,1002.31
2019-04-10T00:46:36.733Z,1002.32
2019-04-10T00:47:17.142Z,1002.36
2019-04-10T00:47:57.536Z,1002.34
2019-04-10T00:48:37.935Z,1002.34
2019-04-10T00:49:18.321Z,1002.34
2019-04-10T00:49:58.753Z,1002.36
2019-04-10T00:50:39.181Z,1002.39
2019-04-10T00:51:19.593Z,1002.33
2019-04-10T00:54:16.066Z,1002.31
2019-04-10T00:54:57.456Z,1002.32
2019-04-10T00:55:37.600Z,1002.3
2019-04-10T00:56:17.379Z,1002.35
2019-04-10T00:56:57.786Z,1002.37
2019-04-10T00:57:39.236Z,1002.38
2019-04-10T00:58:18.593Z,1002.39
2019-04-10T00:58:59.600Z,1002.38
2019-04-10T00:59:42.136Z,1002.37
2019-04-10T01:00:21.970Z,1002.34
2019-04-10T01:01:02.107Z,1002.32
2019-04-10T01:01:43.618Z,1002.33
2019-04-10T01:02:22.939Z,1002.37
2019-04-10T01:03:03.364Z,1002.39
2019-04-10T01:03:44.007Z,1002.37
2019-04-10T01:04:24.521Z,1002.38
2019-04-10T01:05:04.876Z,1002.41
2019-04-10T01:05:45.023Z,1002.38
2019-04-10T01:06:26.168Z,1002.39
2019-04-10T01:07:05.901Z,1002.33
2019-04-10T01:07:47.079Z,1002.34
2019-04-10T01:08:30.721Z,1002.32
2019-04-10T01:09:13.286Z,1002.28
2019-04-10T01:09:55.643Z,1002.31
2019-04-10T01:10:36.701Z,1002.29
2019-04-10T01:11:17.091Z,1002.32
2019-04-10T01:11:57.205Z,1002.34
2019-04-10T01:12:37.186Z,1002.35
2019-04-10T01:13:17.589Z,1002.35
2019-04-10T01:13:59.098Z,1002.36
2019-04-10T01:14:38.471Z,1002.34
2019-04-10T01:15:18.892Z,1002.32
2019-04-10T01:15:59.324Z,1002.29
2019-04-10T01:16:39.811Z,1002.32
2019-04-10T01:17:20.196Z,1002.3
2019-04-10T01:18:00.601Z,1002.3
2019-04-10T01:18:41.564Z,1002.29
2019-04-10T01:19:21.427Z,1002.26
2019-04-10T01:20:01.812Z,1002.27
2019-04-10T01:20:42.224Z,1002.29
2019-04-10T01:21:22.658Z,1002.28
2019-04-10T01:22:03.155Z,1002.33
2019-04-10T01:22:43.531Z,1002.31
2019-04-10T01:23:24.596Z,1002.28
2019-04-10T01:24:04.380Z,1002.3
2019-04-10T01:24:45.975Z,1002.3
2019-04-10T01:25:26.022Z,1002.29
2019-04-10T01:26:05.602Z,1002.32
2019-04-10T01:26:46.022Z,1002.29
2019-04-10T01:27:26.446Z,1002.3
2019-04-10T01:28:06.891Z,1002.31
2019-04-10T01:28:47.313Z,1002.34
2019-04-10T01:29:27.712Z,1002.34
2019-04-10T01:30:08.721Z,1002.35
2019-04-10T01:30:48.689Z,1002.34
2019-04-10T01:31:29.006Z,1002.3
2019-04-10T01:32:09.750Z,1002.29
2019-04-10T01:32:50.189Z,1002.33
2019-04-10T01:33:30.372Z,1002.33
2019-04-10T01:34:11.473Z,1002.3
2019-04-10T01:34:51.750Z,1002.3
2019-04-10T01:35:32.109Z,1002.31
2019-04-10T01:36:12.767Z,1002.35
2019-04-10T01:36:52.421Z,1002.36
2019-04-10T01:37:45.066Z,1002.33
2019-04-10T01:38:13.455Z,1002.35
2019-04-10T01:38:53.795Z,1002.34
2019-04-10T01:39:34.715Z,1002.33
2019-04-10T01:40:14.992Z,1002.35
2019-04-10T01:40:55.351Z,1002.34
2019-04-10T01:41:36.196Z,1002.36
2019-04-10T01:42:16.548Z,1002.38
2019-04-10T01:43:04.252Z,1002.4
2019-04-10T01:43:37.138Z,1002.36
2019-04-10T01:44:17.031Z,1002.39
2019-04-10T01:44:57.431Z,1002.35
2019-04-10T01:45:37.860Z,1002.33
2019-04-10T01:46:18.295Z,1002.35
2019-04-10T01:46:59.086Z,1002.33
2019-04-10T01:47:39.356Z,1002.37
2019-04-10T01:48:19.577Z,1002.36
2019-04-10T01:48:59.952Z,1002.38
2019-04-10T01:49:40.397Z,1002.4
2019-04-10T01:50:20.798Z,1002.37
2019-04-10T01:51:01.258Z,1002.38
2019-04-10T01:51:41.643Z,1002.42
2019-04-10T01:52:22.702Z,1002.39
2019-04-10T01:53:02.459Z,1002.37
2019-04-10T01:53:43.993Z,1002.41
2019-04-10T01:54:23.323Z,1002.4
2019-04-10T01:55:16.730Z,1002.42
2019-04-10T01:55:44.169Z,1002.36
2019-04-10T01:56:29.351Z,1002.37
2019-04-10T01:57:05.919Z,1002.39
2019-04-10T01:57:46.307Z,1002.4
2019-04-10T01:58:25.857Z,1002.36
2019-04-10T01:59:06.283Z,1002.36
2019-04-10T01:59:47.833Z,1002.36
2019-04-10T02:00:28.040Z,1002.33
2019-04-10T02:02:41.150Z,1002.38
2019-04-10T02:03:21.971Z,1002.35
2019-04-10T02:04:02.624Z,1002.38
2019-04-10T02:04:41.976Z,1002.39
2019-04-10T02:05:22.765Z,1002.36
2019-04-10T02:06:03.151Z,1002.39
2019-04-10T02:06:43.319Z,1002.41
2019-04-10T02:07:24.430Z,1002.39
2019-04-10T02:08:08.909Z,1002.38
2019-04-10T02:08:44.477Z,1002.38
2019-04-10T02:09:25.602Z,1002.37
2019-04-10T02:10:05.366Z,1002.38
2019-04-10T02:10:45.812Z,1002.38
2019-04-10T02:11:26.234Z,1002.4
2019-04-10T02:12:06.666Z,1002.39
2019-04-10T02:12:47.265Z,1002.39
2019-04-10T02:13:27.654Z,1002.37
2019-04-10T02:14:07.899Z,1002.39
2019-04-10T02:14:48.834Z,1002.42
2019-04-10T02:15:28.694Z,1002.41
2019-04-10T02:16:09.074Z,1002.37
2019-04-10T02:16:49.531Z,1002.35
2019-04-10T02:17:30.747Z,1002.38
2019-04-10T02:18:10.913Z,1002.37
2019-04-10T02:18:50.663Z,1002.35
2019-04-10T02:19:31.114Z,1002.38
2019-04-10T02:20:12.325Z,1002.4
2019-04-10T02:20:51.892Z,1002.34
2019-04-10T02:21:32.315Z,1002.37
2019-04-10T02:22:12.743Z,1002.38
2019-04-10T02:22:54.045Z,1002.33
2019-04-10T02:23:34.327Z,1002.33
2019-04-10T02:24:14.584Z,1002.33
2019-04-10T02:26:11.609Z,1002.32
2019-04-10T02:26:52.015Z,1002.3
2019-04-10T02:27:32.336Z,1002.34
2019-04-10T02:28:13.057Z,1002.32
2019-04-10T02:28:53.431Z,1002.36
2019-04-10T02:29:33.624Z,1002.36
2019-04-10T02:30:15.005Z,1002.35
2019-04-10T02:30:56.646Z,1002.36
2019-04-10T02:31:36.570Z,1002.35
2019-04-10T02:32:16.536Z,1002.39
2019-04-10T02:32:57.874Z,1002.36
2019-04-10T02:33:36.973Z,1002.33
2019-04-10T02:34:19.216Z,1002.35
2019-04-10T02:34:58.256Z,1002.36
2019-04-10T02:35:39.897Z,1002.35
2019-04-10T02:36:19.461Z,1002.35
2019-04-10T02:37:00.475Z,1002.36
2019-04-10T02:37:39.698Z,1002.35
2019-04-10T02:38:35.409Z,1002.34
2019-04-10T02:39:11.839Z,1002.34
2019-04-10T02:39:46.904Z,1002.37
2019-04-10T02:40:21.396Z,1002.37
2019-04-10T02:41:01.779Z,1002.37
2019-04-10T02:41:42.512Z,1002.37
2019-04-10T02:42:22.651Z,1002.36
2019-04-10T02:43:03.328Z,1002.32
2019-04-10T02:43:43.363Z,1002.35
2019-04-10T02:44:25.977Z,1002.36
2019-04-10T02:45:04.190Z,1002.36
2019-04-10T02:45:44.619Z,1002.36
2019-04-10T02:46:25.135Z,1002.37
2019-04-10T02:47:06.392Z,1002.35
2019-04-10T02:47:47.396Z,1002.37
2019-04-10T02:48:27.530Z,1002.37
2019-04-10T02:49:08.098Z,1002.36
2019-04-10T02:49:47.706Z,1002.42
2019-04-10T02:50:29.275Z,1002.39
2019-04-10T02:51:09.570Z,1002.42
2019-04-10T02:51:49.769Z,1002.39
2019-04-10T02:52:30.777Z,1002.41
2019-04-10T02:53:10.977Z,1002.42
2019-04-10T02:53:52.960Z,1002.4
2019-04-10T02:54:33.383Z,1002.39
2019-04-10T02:55:12.113Z,1002.42
2019-04-10T02:55:53.630Z,1002.47
2019-04-10T02:56:32.820Z,1002.43
2019-04-10T02:57:15.122Z,1002.43
2019-04-10T02:57:56.349Z,1002.44
2019-04-10T02:58:36.001Z,1002.46
2019-04-10T02:59:16.419Z,1002.42
2019-04-10T02:59:57.528Z,1002.42
2019-04-10T03:00:37.852Z,1002.44
2019-04-10T03:01:17.691Z,1002.43
2019-04-10T03:01:58.107Z,1002.45
2019-04-10T03:02:39.242Z,1002.44
2019-04-10T03:03:20.063Z,1002.46
2019-04-10T03:03:59.409Z,1002.44
2019-04-10T03:04:40.464Z,1002.45
2019-04-10T03:05:22.877Z,1002.45
2019-04-10T03:06:00.539Z,1002.45
2019-04-10T03:06:40.951Z,1002.43
2019-04-10T03:07:21.980Z,1002.41
2019-04-10T03:08:01.952Z,1002.46
2019-04-10T03:08:58.541Z,1002.45
2019-04-10T03:09:36.585Z,1002.47
2019-04-10T03:10:14.829Z,1002.46
2019-04-10T03:10:49.293Z,1002.49
2019-04-10T03:11:25.892Z,1002.49
2019-04-10T03:12:05.967Z,1002.51
2019-04-10T03:12:46.263Z,1002.49
2019-04-10T03:13:26.800Z,1002.5
2019-04-10T03:14:05.726Z,1002.51
2019-04-10T03:14:47.512Z,1002.5
2019-04-10T03:15:27.209Z,1002.48
2019-04-10T03:16:07.467Z,1002.5
2019-04-10T03:16:47.882Z,1002.52
2019-04-10T03:17:28.166Z,1002.53
2019-04-10T03:18:08.336Z,1002.51
2019-04-10T03:18:49.310Z,1002.51
2019-04-10T03:19:29.609Z,1002.51
2019-04-10T03:21:43.191Z,1002.49
2019-04-10T03:22:23.631Z,1002.5
2019-04-10T03:23:05.167Z,1002.49
2019-04-10T03:23:45.416Z,1002.51
2019-04-10T03:24:25.258Z,1002.53
2019-04-10T03:25:05.519Z,1002.5
2019-04-10T03:25:45.754Z,1002.51
2019-04-10T03:26:26.154Z,1002.55
2019-04-10T03:27:06.587Z,1002.53
2019-04-10T03:27:47.005Z,1002.5
2019-04-10T03:28:27.418Z,1002.5
2019-04-10T03:29:07.832Z,1002.53
2019-04-10T03:29:48.490Z,1002.55
2019-04-10T03:30:29.613Z,1002.57
2019-04-10T03:31:10.558Z,1002.57
2019-04-10T03:31:52.829Z,1002.54
2019-04-10T03:32:36.209Z,1002.51
2019-04-10T03:33:16.829Z,1002.56
2019-04-10T03:33:55.091Z,1002.57
2019-04-10T03:34:36.412Z,1002.56
2019-04-10T03:35:14.458Z,1002.58
2019-04-10T03:35:54.784Z,1002.56
2019-04-10T03:36:34.256Z,1002.59
2019-04-10T03:37:14.670Z,1002.6
2019-04-10T03:37:55.071Z,1002.57
2019-04-10T03:38:47.204Z,1002.58
2019-04-10T03:39:15.933Z,1002.6
2019-04-10T03:39:57.273Z,1002.63
2019-04-10T03:40:37.572Z,1002.65
2019-04-10T03:41:17.771Z,1002.63
2019-04-10T03:41:57.612Z,1002.66
2019-04-10T03:42:39.110Z,1002.66
2019-04-10T03:43:19.440Z,1002.62
2019-04-10T03:43:58.948Z,1002.65
2019-04-10T03:44:39.364Z,1002.62
2019-04-10T03:45:20.208Z,1002.6
2019-04-10T03:46:01.045Z,1002.61
2019-04-10T03:46:40.614Z,1002.63
2019-04-10T03:47:21.044Z,1002.63
2019-04-10T03:48:02.458Z,1002.64
2019-04-10T03:48:42.868Z,1002.64
2019-04-10T03:49:23.312Z,1002.65
2019-04-10T03:50:04.625Z,1002.65
2019-04-10T03:50:44.148Z,1002.66
2019-04-10T03:51:24.825Z,1002.63
2019-04-10T03:52:05.173Z,1002.63
2019-04-10T03:52:45.429Z,1002.65
2019-04-10T03:53:26.408Z,1002.64
2019-04-10T03:54:06.855Z,1002.63
2019-04-10T03:54:46.668Z,1002.64
2019-04-10T03:55:27.134Z,1002.67
2019-04-10T03:56:07.574Z,1002.63
2019-04-10T03:56:47.957Z,1002.64
2019-04-10T03:57:28.827Z,1002.61
2019-04-10T03:58:09.279Z,1002.61
2019-04-10T03:58:49.509Z,1002.64
2019-04-10T03:59:30.573Z,1002.63
2019-04-10T04:00:09.990Z,1002.67
2019-04-10T04:00:50.611Z,1002.65
2019-04-10T04:01:31.889Z,1002.65
2019-04-10T04:02:11.607Z,1002.67
2019-04-10T04:02:51.864Z,1002.68
2019-04-10T04:03:32.934Z,1002.67
2019-04-10T04:04:13.314Z,1002.72
2019-04-10T04:04:53.621Z,1002.69
2019-04-10T04:05:33.251Z,1002.7
2019-04-10T04:06:13.689Z,1002.72
2019-04-10T04:06:54.109Z,1002.7
2019-04-10T04:07:34.791Z,1002.7
2019-04-10T04:08:15.150Z,1002.7
2019-04-10T04:09:03.022Z,1002.69
2019-04-10T04:09:35.717Z,1002.66
2019-04-10T04:10:16.269Z,1002.71
2019-04-10T04:10:57.247Z,1002.7
2019-04-10T04:11:37.812Z,1002.71
2019-04-10T04:12:18.180Z,1002.69
2019-04-10T04:12:59.984Z,1002.66
2019-04-10T04:13:39.682Z,1002.65
2019-04-10T04:14:20.089Z,1002.68
2019-04-10T04:15:03.536Z,1002.66
2019-04-10T04:15:42.803Z,1002.66
2019-04-10T04:16:23.223Z,1002.68
2019-04-10T04:17:04.000Z,1002.69
2019-04-10T04:17:44.392Z,1002.72
2019-04-10T04:18:24.852Z,1002.7
2019-04-10T04:19:05.835Z,1002.74
2019-04-10T04:19:46.268Z,1002.7
2019-04-10T04:20:26.591Z,1002.75
2019-04-10T04:21:06.159Z,1002.72
2019-04-10T04:21:46.599Z,1002.74
2019-04-10T04:22:27.006Z,1002.76
2019-04-10T04:23:07.465Z,1002.76
2019-04-10T04:23:48.013Z,1002.77
2019-04-10T04:24:28.392Z,1002.77
2019-04-10T04:25:08.840Z,1002.76
2019-04-10T04:25:50.127Z,1002.75
2019-04-10T04:26:31.587Z,1002.76
2019-04-10T04:27:11.109Z,1002.78
2019-04-10T04:27:51.755Z,1002.77
2019-04-10T05:06:39.535Z,1003.18
2019-04-10T05:07:20.481Z,1003.17
2019-04-10T05:08:02.880Z,1003.2
2019-04-10T05:08:41.966Z,1003.24
2019-04-10T05:09:30.935Z,1003.21
2019-04-10T05:10:02.208Z,1003.2
2019-04-10T05:10:42.045Z,1003.17
2019-04-10T05:11:22.469Z,1003.23
2019-04-10T05:12:02.978Z,1003.21
2019-04-10T05:12:43.638Z,1003.25
2019-04-10T05:13:24.358Z,1003.25
2019-04-10T05:14:04.856Z,1003.3
2019-04-10T05:14:44.746Z,1003.24
2019-04-10T05:15:31.089Z,1003.26
2019-04-10T05:16:10.880Z,1003.3
2019-04-10T05:16:52.013Z,1003.25
2019-04-10T05:17:32.992Z,1003.28
2019-04-10T05:18:12.515Z,1003.3
2019-04-10T05:18:52.764Z,1003.31
2019-04-10T05:19:34.032Z,1003.36
2019-04-10T05:20:14.515Z,1003.33
2019-04-10T05:20:54.684Z,1003.37
2019-04-10T05:21:35.160Z,1003.37
2019-04-10T05:22:16.615Z,1003.44
2019-04-10T05:22:56.016Z,1003.42
2019-04-10T05:23:36.361Z,1003.44
2019-04-10T05:24:17.767Z,1003.46
2019-04-10T05:24:57.240Z,1003.44
2019-04-10T05:25:37.832Z,1003.44
2019-04-10T05:26:18.632Z,1003.47
2019-04-10T05:26:59.184Z,1003.5
2019-04-10T05:27:39.225Z,1003.5
2019-04-10T05:28:20.427Z,1003.5
2019-04-10T05:29:00.619Z,1003.55
2019-04-10T05:29:41.046Z,1003.52
2019-04-10T05:30:21.434Z,1003.56
2019-04-10T05:31:02.992Z,1003.59
2019-04-10T05:31:42.635Z,1003.59
2019-04-10T05:32:23.408Z,1003.59
2019-04-10T05:33:04.053Z,1003.6
2019-04-10T05:33:44.939Z,1003.61
2019-04-10T05:34:25.494Z,1003.65
2019-04-10T05:35:07.234Z,1003.63
2019-04-10T05:35:45.911Z,1003.67
2019-04-10T05:36:26.334Z,1003.67
2019-04-10T05:37:07.305Z,1003.69
2019-04-10T05:37:47.739Z,1003.7
2019-04-10T05:38:27.568Z,1003.65
2019-04-10T05:39:08.498Z,1003.68
2019-04-10T05:39:50.728Z,1003.66
2019-04-10T05:40:29.872Z,1003.67
2019-04-10T05:41:09.315Z,1003.66
2019-04-10T05:41:50.341Z,1003.68
2019-04-10T05:42:33.056Z,1003.65
2019-04-10T05:43:13.429Z,1003.68
2019-04-10T05:46:34.672Z,1003.72
2019-04-10T05:47:15.076Z,1003.71
2019-04-10T05:48:00.925Z,1003.71
2019-04-10T05:48:41.891Z,1003.75
2019-04-10T05:49:22.515Z,1003.77
2019-04-10T05:50:03.937Z,1003.78
2019-04-10T05:50:52.917Z,1003.76
2019-04-10T05:51:25.362Z,1003.76
2019-04-10T05:52:06.440Z,1003.77
2019-04-10T05:52:47.399Z,1003.8
2019-04-10T05:53:27.455Z,1003.82
2019-04-10T05:54:08.857Z,1003.78
2019-04-10T05:54:49.444Z,1003.75
2019-04-10T05:55:30.687Z,1003.78
2019-04-10T05:56:10.618Z,1003.82
2019-04-10T05:56:54.844Z,1003.79
2019-04-10T05:57:35.583Z,1003.83
2019-04-10T05:58:17.427Z,1003.82
2019-04-10T05:58:56.984Z,1003.81
2019-04-10T05:59:38.333Z,1003.87
2019-04-10T06:00:20.775Z,1003.86
2019-04-10T06:00:59.433Z,1003.85
2019-04-10T06:01:42.506Z,1003.89
2019-04-10T06:02:21.670Z,1003.85
2019-04-10T06:03:02.281Z,1003.86
2019-04-10T06:05:22.032Z,1003.92
2019-04-10T06:06:01.351Z,1003.87
2019-04-10T06:06:41.705Z,1003.89
2019-04-10T06:07:22.978Z,1003.9
2019-04-10T06:08:02.546Z,1003.93
2019-04-10T06:08:43.523Z,1003.92
2019-04-10T06:09:24.727Z,1003.92
2019-04-10T06:10:07.201Z,1003.93
2019-04-10T06:10:45.674Z,1003.95
2019-04-10T06:11:28.722Z,1003.94
2019-04-10T06:12:09.772Z,1003.95
2019-04-10T06:12:48.848Z,1003.97
2019-04-10T06:13:30.839Z,1003.98
2019-04-10T06:14:13.570Z,1003.95
2019-04-10T06:14:54.601Z,1003.97
2019-04-10T06:15:35.684Z,1003.96
2019-04-10T06:16:17.286Z,1003.99
2019-04-10T06:16:58.498Z,1003.99
2019-04-10T06:17:41.079Z,1004.03
2019-04-10T06:18:21.521Z,1003.98
2019-04-10T06:19:02.057Z,1004
2019-04-10T06:19:42.689Z,1004.03
2019-04-10T06:20:23.257Z,1003.98
2019-04-10T06:21:05.287Z,1004.01
2019-04-10T06:21:46.179Z,1004.01
2019-04-10T06:22:28.914Z,1004
2019-04-10T06:24:47.238Z,1004.05
2019-04-10T06:25:29.437Z,1004.06
2019-04-10T06:26:08.221Z,1004.07
2019-04-10T06:26:51.939Z,1004.12
2019-04-10T06:27:31.121Z,1004.11
2019-04-10T06:28:12.820Z,1004.11
2019-04-10T06:28:52.798Z,1004.13
2019-04-10T06:29:35.021Z,1004.12
2019-04-10T06:30:15.407Z,1004.12
2019-04-10T06:30:54.796Z,1004.14
2019-04-10T06:31:35.234Z,1004.15
2019-04-10T06:32:16.952Z,1004.17
2019-04-10T06:32:56.223Z,1004.12
2019-04-10T06:33:36.682Z,1004.11
2019-04-10T06:34:20.810Z,1004.13
2019-04-10T06:35:01.882Z,1004.15
2019-04-10T06:35:43.144Z,1004.11
2019-04-10T06:36:23.618Z,1004.13
2019-04-10T06:37:04.163Z,1004.1
2019-04-10T06:37:46.381Z,1004.15
2019-04-10T06:38:26.657Z,1004.16
2019-04-10T06:39:06.724Z,1004.15
2019-04-10T06:39:46.888Z,1004.15
2019-04-10T06:40:29.338Z,1004.13
2019-04-10T06:41:09.046Z,1004.13
2019-04-10T06:41:50.546Z,1004.12
2019-04-10T06:42:35.042Z,1004.13
2019-04-10T06:43:11.301Z,1004.13
2019-04-10T06:43:53.070Z,1004.18
2019-04-10T06:44:36.418Z,1004.13
2019-04-10T06:45:17.865Z,1004.11
2019-04-10T06:46:01.183Z,1004.15
2019-04-10T06:46:41.686Z,1004.15
2019-04-10T06:47:22.399Z,1004.07
2019-04-10T06:48:02.758Z,1004.09
2019-04-10T06:48:43.169Z,1004.09
2019-04-10T06:49:23.570Z,1004.13
2019-04-10T06:50:04.333Z,1004.12
2019-04-10T06:50:45.953Z,1004.08
2019-04-10T06:51:25.924Z,1004.12
2019-04-10T06:52:06.449Z,1004.15
2019-04-10T06:52:47.176Z,1004.12
2019-04-10T06:53:28.922Z,1004.15
2019-04-10T06:54:11.280Z,1004.17
2019-04-10T06:54:49.082Z,1004.13
2019-04-10T06:55:30.299Z,1004.14
2019-04-10T06:56:11.251Z,1004.14
2019-04-10T06:56:51.017Z,1004.14
2019-04-10T06:57:32.437Z,1004.16
2019-04-10T06:58:15.763Z,1004.13
2019-04-10T06:58:56.187Z,1004.19
2019-04-10T06:59:35.417Z,1004.19
2019-04-10T07:00:19.660Z,1004.16
2019-04-10T07:01:01.754Z,1004.16
2019-04-10T07:01:48.447Z,1004.16
2019-04-10T07:02:26.975Z,1004.19
2019-04-10T07:03:03.198Z,1004.18
2019-04-10T07:03:51.545Z,1004.2
2019-04-10T07:04:26.644Z,1004.22
2019-04-10T07:05:10.474Z,1004.24
2019-04-10T07:06:02.314Z,1004.21
2019-04-10T07:06:43.668Z,1004.23
2019-04-10T07:07:12.873Z,1004.21
2019-04-10T07:07:55.637Z,1004.21
2019-04-10T07:08:32.093Z,1004.21
2019-04-10T07:09:13.650Z,1004.25
2019-04-10T07:09:55.045Z,1004.18
2019-04-10T07:10:45.288Z,1004.24
2019-04-10T07:11:18.027Z,1004.25
2019-04-10T07:11:58.208Z,1004.22
2019-04-10T07:12:41.705Z,1004.23
2019-04-10T07:13:21.492Z,1004.22
2019-04-10T07:14:01.960Z,1004.23
2019-04-10T07:14:45.365Z,1004.24
2019-04-10T07:15:24.136Z,1004.25
2019-04-10T07:16:04.238Z,1004.24
2019-04-10T07:16:44.448Z,1004.23
2019-04-10T07:17:26.834Z,1004.24
2019-04-10T07:18:08.035Z,1004.25
2019-04-10T07:18:49.381Z,1004.25
2019-04-10T07:19:28.982Z,1004.27
2019-04-10T07:20:09.548Z,1004.32
2019-04-10T07:20:55.862Z,1004.31
2019-04-10T07:21:35.907Z,1004.33
2019-04-10T07:22:16.150Z,1004.38
2019-04-10T07:22:59.556Z,1004.36
2019-04-10T07:23:39.121Z,1004.32
2019-04-10T07:24:20.799Z,1004.34
2019-04-10T07:25:00.961Z,1004.32
2019-04-10T07:25:44.388Z,1004.35
2019-04-10T07:26:33.347Z,1004.37
2019-04-10T07:27:03.748Z,1004.35
2019-04-10T07:27:45.864Z,1004.33
2019-04-10T07:28:27.799Z,1004.41
2019-04-10T07:29:11.012Z,1004.34
2019-04-10T07:29:57.917Z,1004.37
2019-04-10T07:30:38.056Z,1004.37
2019-04-10T07:31:19.328Z,1004.4
2019-04-10T07:31:58.399Z,1004.4
2019-04-10T07:32:43.239Z,1004.41
2019-04-10T07:33:20.985Z,1004.44
2019-04-10T07:34:01.286Z,1004.44
2019-04-10T07:34:40.553Z,1004.39
2019-04-10T07:35:21.852Z,1004.41
2019-04-10T07:36:04.051Z,1004.47
2019-04-10T07:36:43.503Z,1004.47
2019-04-10T07:37:24.033Z,1004.5
2019-04-10T07:38:02.629Z,1004.46
2019-04-10T07:38:43.319Z,1004.47
2019-04-10T07:39:25.953Z,1004.5
2019-04-10T07:40:04.560Z,1004.49
2019-04-10T07:40:44.941Z,1004.47
2019-04-10T07:41:26.334Z,1004.51
2019-04-10T07:42:06.191Z,1004.51
2019-04-10T07:42:46.246Z,1004.51
2019-04-10T07:43:27.846Z,1004.55
2019-04-10T07:44:07.919Z,1004.54
2019-04-10T07:44:47.132Z,1004.56
2019-04-10T07:45:27.522Z,1004.54
2019-04-10T07:46:07.966Z,1004.55
2019-04-10T07:46:48.809Z,1004.51
2019-04-10T07:47:29.206Z,1004.56
2019-04-10T07:48:09.416Z,1004.54
2019-04-10T07:48:50.237Z,1004.57
2019-04-10T07:49:31.447Z,1004.56
2019-04-10T07:50:12.309Z,1004.57
2019-04-10T07:50:54.308Z,1004.57
2019-04-10T07:51:34.773Z,1004.6
2019-04-10T07:52:16.857Z,1004.62
2019-04-10T07:52:57.498Z,1004.61
2019-04-10T07:53:37.752Z,1004.6
2019-04-10T07:54:20.789Z,1004.63
2019-04-10T07:54:58.695Z,1004.61
2019-04-10T07:55:39.730Z,1004.58
2019-04-10T07:56:20.846Z,1004.6
2019-04-10T07:56:59.899Z,1004.58
2019-04-10T07:57:44.086Z,1004.64
2019-04-10T07:58:24.068Z,1004.62
2019-04-10T07:59:05.290Z,1004.62
2019-04-10T07:59:45.672Z,1004.61
2019-04-10T08:00:28.872Z,1004.62
2019-04-10T08:01:09.852Z,1004.68
2019-04-10T08:01:49.745Z,1004.67
2019-04-10T08:02:30.181Z,1004.67
2019-04-10T08:03:11.050Z,1004.68
2019-04-10T08:03:52.792Z,1004.7
2019-04-10T08:04:31.946Z,1004.64
2019-04-10T08:05:15.135Z,1004.67
2019-04-10T08:05:55.685Z,1004.69
2019-04-10T08:06:37.735Z,1004.68
2019-04-10T08:07:29.348Z,1004.67
2019-04-10T08:08:00.924Z,1004.67
2019-04-10T08:08:41.038Z,1004.68
2019-04-10T08:09:24.367Z,1004.65
2019-04-10T08:10:04.199Z,1004.67
2019-04-10T08:10:45.094Z,1004.7
2019-04-10T08:11:27.983Z,1004.66
2019-04-10T08:12:09.251Z,1004.67
2019-04-10T08:12:51.921Z,1004.66
2019-04-10T08:13:29.247Z,1004.68
2019-04-10T08:14:10.642Z,1004.68
2019-04-10T08:14:50.259Z,1004.72
2019-04-10T08:15:31.556Z,1004.73
2019-04-10T08:16:11.012Z,1004.74
2019-04-10T08:16:52.018Z,1004.76
2019-04-10T08:17:32.651Z,1004.75
2019-04-10T08:18:13.085Z,1004.76
2019-04-10T08:18:54.155Z,1004.75
2019-04-10T08:19:35.078Z,1004.76
2019-04-10T08:20:15.510Z,1004.77
2019-04-10T08:20:59.263Z,1004.69
2019-04-10T08:21:40.335Z,1004.72
2019-04-10T08:22:20.909Z,1004.7
2019-04-10T08:23:01.611Z,1004.77
2019-04-10T08:23:43.169Z,1004.75
2019-04-10T08:24:24.592Z,1004.72
2019-04-10T08:26:54.513Z,1004.74
2019-04-10T08:27:34.637Z,1004.73
2019-04-10T08:28:17.783Z,1004.74
2019-04-10T08:28:59.304Z,1004.77
2019-04-10T08:29:39.436Z,1004.79
2019-04-10T08:30:20.057Z,1004.8
2019-04-10T08:31:02.045Z,1004.82
2019-04-10T08:31:42.674Z,1004.85
2019-04-10T08:32:25.673Z,1004.83
2019-04-10T08:33:06.063Z,1004.82
2019-04-10T08:33:47.755Z,1004.81
2019-04-10T08:34:28.455Z,1004.8
2019-04-10T08:35:09.232Z,1004.82
2019-04-10T08:35:49.633Z,1004.81
2019-04-10T08:36:30.104Z,1004.84
2019-04-10T08:37:10.520Z,1004.82
2019-04-10T08:37:52.763Z,1004.83
2019-04-10T08:38:32.660Z,1004.85
2019-04-10T08:39:21.477Z,1004.83
2019-04-10T08:39:56.799Z,1004.87
2019-04-10T08:40:36.869Z,1004.85
2019-04-10T08:41:17.398Z,1004.9
2019-04-10T08:41:58.069Z,1004.86
2019-04-10T08:42:40.381Z,1004.86
2019-04-10T08:43:20.652Z,1004.83
2019-04-10T08:44:00.658Z,1004.85
2019-04-10T08:44:42.635Z,1004.83
2019-04-10T08:45:23.714Z,1004.84
2019-04-10T08:46:05.288Z,1004.84
2019-04-10T08:46:46.216Z,1004.86
2019-04-10T08:47:26.652Z,1004.9
2019-04-10T08:48:08.059Z,1004.91
2019-04-10T08:48:48.387Z,1004.88
2019-04-10T08:49:28.851Z,1004.88
2019-04-10T08:50:09.746Z,1004.88
2019-04-10T08:50:50.323Z,1004.89
2019-04-10T08:51:31.033Z,1004.89
2019-04-10T08:52:11.006Z,1004.88
2019-04-10T08:52:51.175Z,1004.9
2019-04-10T08:53:31.707Z,1004.92
2019-04-10T08:54:12.128Z,1004.96
2019-04-10T08:54:53.202Z,1004.96
2019-04-10T08:55:34.432Z,1004.98
2019-04-10T08:56:14.559Z,1004.98
2019-04-10T08:56:55.097Z,1004.95
2019-04-10T08:57:36.220Z,1004.94
2019-04-10T08:58:16.699Z,1005
2019-04-10T08:58:59.273Z,1004.96
2019-04-10T08:59:40.158Z,1004.97
2019-04-10T09:00:20.651Z,1004.97
2019-04-10T09:01:00.850Z,1004.94
2019-04-10T09:01:41.733Z,1004.93
2019-04-10T09:02:22.110Z,1004.93
2019-04-10T09:03:02.447Z,1004.98
2019-04-10T09:03:43.371Z,1004.98
2019-04-10T09:04:23.391Z,1004.98
2019-04-10T09:05:04.209Z,1004.95
2019-04-10T09:05:47.016Z,1004.97
2019-04-10T09:06:27.330Z,1004.99
2019-04-10T09:07:08.264Z,1004.95
2019-04-10T09:07:48.608Z,1004.97
2019-04-10T09:08:28.954Z,1004.96
2019-04-10T09:09:09.722Z,1004.99
2019-04-10T09:09:50.037Z,1004.97